TimeCST,TemperatureF,Dew PointF,Humidity,Sea Level PressureIn,VisibilityMPH,Wind Direction,Wind SpeedMPH,Gust SpeedMPH,PrecipitationIn,Events,Conditions,WindDirDegrees,DateUTC
12:53 AM,41.0,19.0,41,29.93,10.0,South,12.7,-,N/A,,Clear,180,2013-03-07 06:53:00
1:53 AM,42.1,19.0,40,29.91,10.0,South,16.1,-,N/A,,Clear,190,2013-03-07 07:53:00
2:53 AM,39.9,19.0,43,29.90,10.0,South,12.7,-,N/A,,Clear,190,2013-03-07 08:53:00
3:53 AM,37.0,19.9,50,29.88,10.0,SW,12.7,-,N/A,,Clear,220,2013-03-07 09:53:00
4:53 AM,32.0,19.0,59,29.89,10.0,SW,8.1,-,N/A,,Clear,230,2013-03-07 10:53:00
5:53 AM,30.9,19.9,64,29.91,10.0,SW,6.9,-,N/A,,Clear,230,2013-03-07 11:53:00
6:53 AM,30.0,19.9,66,29.94,10.0,SW,8.1,-,N/A,,Clear,220,2013-03-07 12:53:00
7:53 AM,36.0,23.0,59,29.94,10.0,SW,3.5,-,N/A,,Clear,230,2013-03-07 13:53:00
8:53 AM,50.0,26.1,39,29.94,10.0,West,8.1,-,N/A,,Clear,260,2013-03-07 14:53:00
9:53 AM,60.1,25.0,26,29.93,10.0,WSW,17.3,-,N/A,,Clear,240,2013-03-07 15:53:00
10:53 AM,66.0,25.0,21,29.91,10.0,WSW,11.5,-,N/A,,Clear,240,2013-03-07 16:53:00
11:53 AM,73.0,24.1,16,29.88,10.0,SSW,9.2,-,N/A,,Clear,210,2013-03-07 17:53:00
12:53 PM,80.1,19.9,11,29.85,10.0,SW,23.0,27.6,N/A,,Clear,230,2013-03-07 18:53:00
1:53 PM,81.0,19.9,10,29.82,10.0,SW,25.3,32.2,N/A,,Clear,220,2013-03-07 19:53:00
2:53 PM,81.0,19.9,10,29.80,9.0,SW,25.3,33.4,N/A,,Clear,220,2013-03-07 20:53:00
3:53 PM,80.1,19.9,11,29.81,10.0,SW,18.4,31.1,N/A,,Clear,230,2013-03-07 21:53:00
8:53 PM,61.0,26.1,26,29.83,10.0,South,16.1,-,N/A,,Clear,180,2013-03-08 02:53:00
9:53 PM,55.0,26.1,33,29.85,10.0,South,12.7,-,N/A,,Clear,170,2013-03-08 03:53:00
10:53 PM,55.0,25.0,31,29.84,10.0,South,13.8,-,N/A,,Clear,180,2013-03-08 04:53:00
11:53 PM,54.0,25.0,33,29.82,10.0,South,16.1,-,N/A,,Clear,180,2013-03-08 05:53:00